Herrville, Pennsylvania
Current Conditions -  °F | °C
As of 9:53 AM on Friday 31 Oct 2014 (Local Time) from KLNS Reporting Station
Overcast Overcast  
Wind Chill: 42°   Ceiling: 5500
Heat Index: 46°   Visibility: 10mi
Dew Point: 33°   Wind: 7mph
Humidity: 61%   Direction: 100°E
Pressure: 30"   Gusts: NA
Location:  39.9601°N, 76.2683°W
Report Text: KLNS 311353Z 10006KT 10SM OVC055 08/01 A3000 RMK AO2 SLP161 T00780006
Loading
Personal Weather Stations






























Interactive Weather Map
Tropical Storm Tracking
New forecast layout! Learn more

10-Day Weather Forecast

Advertisements
Track Severe Weather on mobile